Time;durP1;ratioP1;P1;durP2;ratioP2;P2;SDS_P1;SDS_P2;PMS_P1;PMS_P2;Temp;Humidity;BMP_temperature;BMP_pressure;BME280_temperature;BME280_humidity;BME280_pressure;Samples;Min_cycle;Max_cycle;Signal;HPM_P1;HPM_P2
2022/09/22 00:01:58;;;;;;;0.30;0.30;;;;;;;;;;5072882;28;20040;-88
2022/09/22 00:04:24;;;;;;;0.30;0.30;;;;;;;;;;5072665;28;20037;-88
2022/09/22 00:06:54;;;;;;;0.20;0.20;;;;;;;;;;5072702;28;20390;-87
2022/09/22 00:09:20;;;;;;;0.20;0.20;;;;;;;;;;5055726;28;20047;-87
2022/09/22 00:11:48;;;;;;;0.20;0.20;;;;;;;;;;5072361;28;20051;-88
2022/09/22 00:14:14;;;;;;;0.30;0.30;;;;;;;;;;5072206;28;20123;-88
2022/09/22 00:16:40;;;;;;;0.20;0.20;;;;;;;;;;5072351;28;20516;-88
2022/09/22 00:19:07;;;;;;;0.20;0.20;;;;;;;;;;5055876;28;20037;-88
2022/09/22 00:21:34;;;;;;;0.25;0.25;;;;;;;;;;5072210;28;20086;-88
2022/09/22 00:24:04;;;;;;;0.30;0.30;;;;;;;;;;5072186;28;20174;-88
2022/09/22 00:26:30;;;;;;;0.30;0.30;;;;;;;;;;5072410;28;20131;-88
2022/09/22 00:28:56;;;;;;;0.20;0.20;;;;;;;;;;5071881;28;20050;-88
2022/09/22 00:31:24;;;;;;;0.20;0.20;;;;;;;;;;5071898;28;20405;-88
2022/09/22 00:33:51;;;;;;;0.20;0.20;;;;;;;;;;5072362;28;20318;-88
2022/09/22 00:36:18;;;;;;;0.20;0.20;;;;;;;;;;5071833;28;20037;-88
2022/09/22 00:38:45;;;;;;;0.40;0.40;;;;;;;;;;5071646;28;20046;-88
2022/09/22 00:41:17;;;;;;;0.40;0.40;;;;;;;;;;5071850;28;20044;-87
2022/09/22 00:43:46;;;;;;;0.30;0.30;;;;;;;;;;5055063;28;20086;-88
2022/09/22 00:46:32;;;;;;;0.25;0.25;;;;;;;;;;5071933;28;20509;-88
2022/09/22 00:49:01;;;;;;;0.30;0.30;;;;;;;;;;5054754;28;20048;-88
2022/09/22 00:51:29;;;;;;;0.30;0.30;;;;;;;;;;5071277;28;20071;-87
2022/09/22 00:53:56;;;;;;;0.30;0.30;;;;;;;;;;5071594;28;20040;-88
2022/09/22 00:56:25;;;;;;;0.20;0.20;;;;;;;;;;5071519;28;20456;-88
2022/09/22 00:58:53;;;;;;;0.28;0.28;;;;;;;;;;5071137;28;20044;-87
2022/09/22 01:01:20;;;;;;;0.40;0.40;;;;;;;;;;5071562;28;20041;-87
2022/09/22 01:03:47;;;;;;;0.10;0.10;;;;;;;;;;5071172;28;20048;-88
2022/09/22 01:06:16;;;;;;;0.30;0.30;;;;;;;;;;5071571;28;20044;-88
2022/09/22 01:08:43;;;;;;;0.32;0.32;;;;;;;;;;5071027;28;20374;-87
2022/09/22 01:11:10;;;;;;;0.35;0.35;;;;;;;;;;5071413;28;20097;-88
2022/09/22 01:13:48;;;;;;;0.30;0.30;;;;;;;;;;5054695;28;20037;-87
2022/09/22 01:16:32;;;;;;;0.20;0.20;;;;;;;;;;5071356;28;20039;-88
2022/09/22 01:19:14;;;;;;;0.33;0.33;;;;;;;;;;5071152;28;20036;-88
2022/09/22 01:21:47;;;;;;;0.30;0.30;;;;;;;;;;5071029;28;20798;-88
2022/09/22 01:24:32;;;;;;;0.30;0.30;;;;;;;;;;5071455;28;20040;-88
2022/09/22 01:27:01;;;;;;;0.20;0.20;;;;;;;;;;5071303;28;20036;-88
2022/09/22 01:29:27;;;;;;;0.30;0.30;;;;;;;;;;5071065;28;20131;-88
2022/09/22 01:31:52;;;;;;;0.30;0.30;;;;;;;;;;5071343;28;20223;-88
2022/09/22 01:34:33;;;;;;;0.20;0.20;;;;;;;;;;5071101;28;20036;-88
2022/09/22 01:37:08;;;;;;;0.30;0.30;;;;;;;;;;5071102;28;20482;-88
2022/09/22 01:39:38;;;;;;;0.30;0.30;;;;;;;;;;5070731;28;20059;-87
2022/09/22 01:42:14;;;;;;;0.28;0.28;;;;;;;;;;5071252;28;20047;-88
2022/09/22 01:44:40;;;;;;;;;;;;;;;;;;5071332;28;20044;-88
2022/09/22 01:47:09;;;;;;;0.30;0.30;;;;;;;;;;5054287;28;20023;-87
2022/09/22 01:49:38;;;;;;;0.40;0.40;;;;;;;;;;5070617;28;20043;-88
2022/09/22 01:52:07;;;;;;;0.20;0.20;;;;;;;;;;5070958;28;20079;-88
2022/09/22 01:54:53;;;;;;;0.40;0.40;;;;;;;;;;5070735;28;20040;-88
2022/09/22 01:57:38;;;;;;;0.30;0.30;;;;;;;;;;5053773;28;20036;-87
2022/09/22 02:00:06;;;;;;;0.30;0.30;;;;;;;;;;5070683;28;20131;-87
2022/09/22 02:02:39;;;;;;;0.20;0.20;;;;;;;;;;5070896;28;20490;-88
2022/09/22 02:05:08;;;;;;;0.40;0.40;;;;;;;;;;5070674;28;20409;-87
2022/09/22 02:07:37;;;;;;;0.20;0.20;;;;;;;;;;5070589;28;20107;-88
2022/09/22 02:10:06;;;;;;;0.30;0.30;;;;;;;;;;5070469;28;20544;-88
2022/09/22 02:12:33;;;;;;;0.20;0.20;;;;;;;;;;5070399;28;20044;-88
2022/09/22 02:15:00;;;;;;;0.30;0.30;;;;;;;;;;5070933;28;20039;-88
2022/09/22 02:17:26;;;;;;;0.30;0.30;;;;;;;;;;5070606;28;20040;-87
2022/09/22 02:19:52;;;;;;;0.30;0.30;;;;;;;;;;5054663;28;20032;-88
2022/09/22 02:22:18;;;;;;;0.20;0.20;;;;;;;;;;5074230;28;20048;-88
2022/09/22 02:24:45;;;;;;;0.30;0.30;;;;;;;;;;5074300;28;20040;-88
2022/09/22 02:27:25;;;;;;;0.40;0.40;;;;;;;;;;5074199;28;20127;-88
2022/09/22 02:29:57;;;;;;;0.30;0.30;;;;;;;;;;5057481;28;20063;-88
2022/09/22 02:32:24;;;;;;;0.40;0.40;;;;;;;;;;5074034;28;20273;-87
2022/09/22 02:34:50;;;;;;;0.25;0.25;;;;;;;;;;5073858;28;20041;-87
2022/09/22 02:37:25;;;;;;;0.30;0.30;;;;;;;;;;5074140;28;20047;-86
2022/09/22 02:39:51;;;;;;;;;;;;;;;;;;5073955;28;20106;-88
2022/09/22 02:42:25;;;;;;;0.30;0.30;;;;;;;;;;5057569;28;20434;-87
2022/09/22 02:44:51;;;;;;;0.30;0.30;;;;;;;;;;5073919;28;20045;-88
2022/09/22 02:47:27;;;;;;;0.20;0.20;;;;;;;;;;5073857;28;20097;-87
2022/09/22 02:49:54;;;;;;;0.30;0.30;;;;;;;;;;5073553;28;20110;-87
2022/09/22 02:52:22;;;;;;;0.20;0.20;;;;;;;;;;5057067;28;20049;-87
2022/09/22 02:54:48;;;;;;;0.28;0.28;;;;;;;;;;5073574;28;20036;-87
2022/09/22 02:57:14;;;;;;;0.20;0.20;;;;;;;;;;5073689;28;20404;-87
2022/09/22 02:59:40;;;;;;;0.20;0.20;;;;;;;;;;5073153;28;20036;-87
2022/09/22 03:02:06;;;;;;;0.30;0.30;;;;;;;;;;5074041;28;20440;-87
2022/09/22 03:04:32;;;;;;;0.30;0.30;;;;;;;;;;5073336;28;20097;-87
2022/09/22 03:06:58;;;;;;;0.25;0.25;;;;;;;;;;5073471;28;20401;-87
2022/09/22 03:09:24;;;;;;;0.40;0.40;;;;;;;;;;5073090;28;20127;-88
2022/09/22 03:11:50;;;;;;;0.30;0.30;;;;;;;;;;5073210;28;20493;-87
2022/09/22 03:14:16;;;;;;;0.20;0.20;;;;;;;;;;5073314;28;20041;-87
2022/09/22 03:16:42;;;;;;;0.30;0.30;;;;;;;;;;5073025;28;20032;-88
2022/09/22 03:19:08;;;;;;;0.30;0.30;;;;;;;;;;5073161;28;20044;-87
2022/09/22 03:21:34;;;;;;;0.40;0.40;;;;;;;;;;5073436;28;20056;-88
2022/09/22 03:24:00;;;;;;;0.40;0.40;;;;;;;;;;5073405;28;20033;-88
2022/09/22 03:26:26;;;;;;;0.30;0.30;;;;;;;;;;5073154;28;20489;-87
2022/09/22 03:28:52;;;;;;;0.30;0.30;;;;;;;;;;5072900;28;20123;-87
2022/09/22 03:31:18;;;;;;;0.40;0.40;;;;;;;;;;5072578;28;20045;-87
2022/09/22 03:33:44;;;;;;;0.32;0.32;;;;;;;;;;5072944;28;20036;-87
2022/09/22 03:36:10;;;;;;;0.30;0.30;;;;;;;;;;5073357;28;20485;-87
2022/09/22 03:38:36;;;;;;;0.30;0.30;;;;;;;;;;5072619;28;20036;-87
2022/09/22 03:41:02;;;;;;;0.40;0.40;;;;;;;;;;5072689;28;20040;-87
2022/09/22 03:43:28;;;;;;;0.22;0.22;;;;;;;;;;5072695;28;20048;-88
2022/09/22 03:45:58;;;;;;;0.40;0.40;;;;;;;;;;5073176;28;20439;-86
2022/09/22 03:48:24;;;;;;;0.30;0.30;;;;;;;;;;5072514;28;20052;-87
2022/09/22 03:50:50;;;;;;;0.32;0.32;;;;;;;;;;5072806;28;20407;-87
2022/09/22 03:53:16;;;;;;;0.40;0.40;;;;;;;;;;5072623;28;20040;-87
2022/09/22 03:55:42;;;;;;;0.30;0.30;;;;;;;;;;5073013;28;20036;-88
2022/09/22 03:58:08;;;;;;;0.40;0.40;;;;;;;;;;5072322;28;20133;-87
2022/09/22 04:00:37;;;;;;;0.30;0.30;;;;;;;;;;5072316;28;20090;-88
2022/09/22 04:03:04;;;;;;;0.40;0.40;;;;;;;;;;5081036;28;20033;-88
2022/09/22 04:05:30;;;;;;;0.30;0.30;;;;;;;;;;5065184;28;20034;-88
2022/09/22 04:07:56;;;;;;;0.40;0.40;;;;;;;;;;5063547;28;20040;-88
2022/09/22 04:10:22;;;;;;;0.40;0.40;;;;;;;;;;5081568;28;20033;-87
2022/09/22 04:12:48;;;;;;;0.40;0.40;;;;;;;;;;5065676;28;20055;-87
2022/09/22 04:15:14;;;;;;;0.30;0.30;;;;;;;;;;5064206;28;20048;-87
2022/09/22 04:17:40;;;;;;;0.30;0.30;;;;;;;;;;5066808;28;20688;-87
2022/09/22 04:20:07;;;;;;;0.30;0.30;;;;;;;;;;5063295;28;20044;-87
2022/09/22 04:22:33;;;;;;;0.30;0.30;;;;;;;;;;5066481;28;20074;-87
2022/09/22 04:24:59;;;;;;;0.30;0.30;;;;;;;;;;5066993;28;20058;-88
2022/09/22 04:27:25;;;;;;;0.32;0.32;;;;;;;;;;5064342;28;20071;-88
2022/09/22 04:29:51;;;;;;;0.30;0.30;;;;;;;;;;5064781;28;20052;-87
2022/09/22 04:32:17;;;;;;;0.28;0.28;;;;;;;;;;5065162;28;20667;-87
2022/09/22 04:34:44;;;;;;;0.30;0.30;;;;;;;;;;5063774;28;20128;-87
2022/09/22 04:37:10;;;;;;;0.30;0.30;;;;;;;;;;5066784;28;20481;-87
2022/09/22 04:39:36;;;;;;;0.40;0.40;;;;;;;;;;5066514;28;20032;-88
2022/09/22 04:42:03;;;;;;;0.30;0.30;;;;;;;;;;5062361;28;20040;-87
2022/09/22 04:44:29;;;;;;;0.40;0.40;;;;;;;;;;5062559;28;20052;-86
2022/09/22 04:46:56;;;;;;;0.40;0.40;;;;;;;;;;5065080;28;20079;-87
2022/09/22 04:49:22;;;;;;;0.40;0.40;;;;;;;;;;5081011;28;20036;-87
2022/09/22 04:51:48;;;;;;;0.30;0.30;;;;;;;;;;5064036;28;20049;-87
2022/09/22 04:54:14;;;;;;;0.40;0.40;;;;;;;;;;5065997;28;20405;-87
2022/09/22 04:56:41;;;;;;;0.25;0.25;;;;;;;;;;5065928;28;20561;-87
2022/09/22 04:59:07;;;;;;;0.40;0.40;;;;;;;;;;5078885;28;20029;-87
2022/09/22 05:01:33;;;;;;;0.32;0.32;;;;;;;;;;5054648;28;20072;-87
2022/09/22 05:03:59;;;;;;;0.40;0.40;;;;;;;;;;5065682;28;20031;-86
2022/09/22 05:06:25;;;;;;;0.40;0.40;;;;;;;;;;5063511;28;20400;-87
2022/09/22 05:08:51;;;;;;;0.30;0.30;;;;;;;;;;5064243;28;20044;-88
2022/09/22 05:11:18;;;;;;;0.32;0.32;;;;;;;;;;5065720;28;20048;-87
2022/09/22 05:13:45;;;;;;;0.30;0.30;;;;;;;;;;5065163;28;20036;-87
2022/09/22 05:16:11;;;;;;;0.40;0.40;;;;;;;;;;5063368;28;20041;-87
2022/09/22 05:18:38;;;;;;;0.32;0.32;;;;;;;;;;5065817;28;20442;-87
2022/09/22 05:21:06;;;;;;;0.40;0.40;;;;;;;;;;5063045;28;20040;-87
2022/09/22 05:23:32;;;;;;;0.40;0.40;;;;;;;;;;5066432;28;20423;-87
2022/09/22 05:25:58;;;;;;;0.40;0.40;;;;;;;;;;5065191;28;20055;-87
2022/09/22 05:28:24;;;;;;;0.40;0.40;;;;;;;;;;5080022;28;20127;-87
2022/09/22 05:30:51;;;;;;;0.30;0.30;;;;;;;;;;5064324;28;20631;-87
2022/09/22 05:33:17;;;;;;;0.35;0.35;;;;;;;;;;5063987;28;20036;-90
2022/09/22 05:35:43;;;;;;;0.40;0.40;;;;;;;;;;5063943;28;20040;-89
2022/09/22 05:38:09;;;;;;;0.30;0.30;;;;;;;;;;5061871;28;20036;-91
2022/09/22 05:40:35;;;;;;;0.40;0.40;;;;;;;;;;5066453;28;20034;-88
2022/09/22 05:43:01;;;;;;;0.30;0.30;;;;;;;;;;5066064;28;20055;-87
2022/09/22 05:45:27;;;;;;;0.30;0.30;;;;;;;;;;5062834;28;20040;-88
2022/09/22 05:47:53;;;;;;;0.45;0.45;;;;;;;;;;5067006;28;20070;-87
2022/09/22 05:50:20;;;;;;;0.40;0.40;;;;;;;;;;5080905;28;20043;-88
2022/09/22 05:52:46;;;;;;;0.40;0.40;;;;;;;;;;5064029;28;20071;-87
2022/09/22 05:55:13;;;;;;;0.40;0.40;;;;;;;;;;5065163;28;20028;-87
2022/09/22 05:57:39;;;;;;;0.40;0.40;;;;;;;;;;5082939;28;20059;-88
2022/09/22 06:00:06;;;;;;;0.40;0.40;;;;;;;;;;5070138;28;20229;-87
2022/09/22 06:02:32;;;;;;;0.40;0.40;;;;;;;;;;5065997;28;20405;-88
2022/09/22 06:04:58;;;;;;;0.30;0.30;;;;;;;;;;5070202;28;20052;-87
2022/09/22 06:07:24;;;;;;;0.40;0.40;;;;;;;;;;5068856;28;20055;-88
2022/09/22 06:09:50;;;;;;;0.40;0.40;;;;;;;;;;5069643;28;20040;-89
2022/09/22 06:12:17;;;;;;;0.30;0.30;;;;;;;;;;5086295;28;20437;-87
2022/09/22 06:14:43;;;;;;;0.20;0.20;;;;;;;;;;5079345;28;20093;-86
2022/09/22 06:17:10;;;;;;;0.50;0.50;;;;;;;;;;5075595;28;20035;-86
2022/09/22 06:20:01;;;;;;;0.50;0.50;;;;;;;;;;5058822;28;20068;-87
2022/09/22 06:22:27;;;;;;;0.30;0.30;;;;;;;;;;5059310;28;20048;-88
2022/09/22 06:24:53;;;;;;;0.40;0.40;;;;;;;;;;5059023;28;20125;-87
2022/09/22 06:27:19;;;;;;;0.30;0.30;;;;;;;;;;5058321;28;20040;-85
2022/09/22 06:29:45;;;;;;;0.40;0.40;;;;;;;;;;5083159;28;20033;-87
2022/09/22 06:32:11;;;;;;;0.40;0.40;;;;;;;;;;5058433;28;20090;-89
2022/09/22 06:34:37;;;;;;;0.40;0.40;;;;;;;;;;5063859;28;20036;-88
2022/09/22 06:37:06;;;;;;;0.40;0.40;;;;;;;;;;5079028;28;20040;-89
2022/09/22 06:39:33;;;;;;;0.30;0.30;;;;;;;;;;5073144;28;20032;-87
2022/09/22 06:42:00;;;;;;;0.40;0.40;;;;;;;;;;5064776;28;20123;-86
2022/09/22 06:44:26;;;;;;;0.32;0.32;;;;;;;;;;5068500;28;20070;-86
2022/09/22 06:46:52;;;;;;;0.40;0.40;;;;;;;;;;5061574;28;20101;-86
2022/09/22 06:49:19;;;;;;;0.40;0.40;;;;;;;;;;5067389;28;20487;-87
2022/09/22 06:51:45;;;;;;;0.40;0.40;;;;;;;;;;5066466;28;20036;-87
2022/09/22 06:54:12;;;;;;;0.30;0.30;;;;;;;;;;5061765;28;20033;-88
2022/09/22 06:56:41;;;;;;;0.30;0.30;;;;;;;;;;5063692;28;20550;-88
2022/09/22 06:59:09;;;;;;;0.50;0.50;;;;;;;;;;5078474;28;20067;-85
2022/09/22 07:01:35;;;;;;;0.30;0.30;;;;;;;;;;5078638;28;20481;-90
2022/09/22 07:04:01;;;;;;;0.40;0.40;;;;;;;;;;5078040;28;20040;-86
2022/09/22 07:06:28;;;;;;;0.20;0.20;;;;;;;;;;5077947;28;20496;-89
2022/09/22 07:08:54;;;;;;;0.40;0.40;;;;;;;;;;5075248;28;20043;-89
2022/09/22 07:11:22;;;;;;;0.40;0.40;;;;;;;;;;5058815;28;20051;-89
2022/09/22 07:13:49;;;;;;;0.30;0.30;;;;;;;;;;5060472;28;20047;-87
2022/09/22 07:16:16;;;;;;;0.30;0.30;;;;;;;;;;5073127;28;20035;-88
2022/09/22 07:18:43;;;;;;;0.50;0.50;;;;;;;;;;5076050;28;20036;-87
2022/09/22 07:21:11;;;;;;;0.30;0.30;;;;;;;;;;5057489;28;20040;-88
2022/09/22 07:23:37;;;;;;;0.30;0.30;;;;;;;;;;5057878;28;20409;-89
2022/09/22 07:26:05;;;;;;;0.40;0.40;;;;;;;;;;5057964;28;20041;-89
2022/09/22 07:28:32;;;;;;;0.30;0.30;;;;;;;;;;5070086;28;20495;-86
2022/09/22 07:31:04;;;;;;;0.30;0.30;;;;;;;;;;5094240;28;20068;-87
2022/09/22 07:33:30;;;;;;;0.40;0.40;;;;;;;;;;5064407;28;20040;-86
2022/09/22 07:36:10;;;;;;;0.40;0.40;;;;;;;;;;5064211;28;20055;-87
2022/09/22 07:38:39;;;;;;;0.30;0.30;;;;;;;;;;5059393;28;20078;-91
2022/09/22 07:41:06;;;;;;;0.40;0.40;;;;;;;;;;5066728;28;20035;-88
2022/09/22 07:43:33;;;;;;;0.40;0.40;;;;;;;;;;5065855;28;20033;-90
2022/09/22 07:45:59;;;;;;;0.40;0.40;;;;;;;;;;5068107;28;20089;-87
2022/09/22 07:48:34;;;;;;;0.25;0.25;;;;;;;;;;5057238;28;20071;-87
2022/09/22 07:51:00;;;;;;;0.17;0.17;;;;;;;;;;5056701;28;20055;-87
2022/09/22 07:53:27;;;;;;;0.20;0.20;;;;;;;;;;5057024;28;20482;-87
2022/09/22 07:55:53;;;;;;;0.40;0.40;;;;;;;;;;5073387;28;20524;-87
2022/09/22 07:58:20;;;;;;;0.30;0.30;;;;;;;;;;5056866;28;20087;-85
2022/09/22 08:00:46;;;;;;;0.28;0.28;;;;;;;;;;5065918;28;20139;-84
2022/09/22 08:03:12;;;;;;;0.20;0.20;;;;;;;;;;5067326;28;20469;-87
2022/09/22 08:05:39;;;;;;;0.20;0.20;;;;;;;;;;5084047;28;20469;-84
2022/09/22 08:08:06;;;;;;;0.25;0.25;;;;;;;;;;5065894;28;20034;-85
2022/09/22 08:10:34;;;;;;;0.20;0.20;;;;;;;;;;5059779;28;20040;-84
2022/09/22 08:13:01;;;;;;;0.30;0.30;;;;;;;;;;5056157;28;20051;-85
2022/09/22 08:15:27;;;;;;;0.22;0.22;;;;;;;;;;5069150;28;20047;-86
2022/09/22 08:17:57;;;;;;;0.20;0.20;;;;;;;;;;5076261;28;20039;-89
2022/09/22 08:20:25;;;;;;;0.20;0.20;;;;;;;;;;5060623;28;20040;-89
2022/09/22 08:23:04;;;;;;;0.20;0.20;;;;;;;;;;5083057;28;20149;-89
2022/09/22 08:25:30;;;;;;;0.40;0.40;;;;;;;;;;5058971;28;20043;-89
2022/09/22 08:27:57;;;;;;;0.20;0.20;;;;;;;;;;5082450;28;20178;-89
2022/09/22 08:30:23;;;;;;;0.20;0.20;;;;;;;;;;5060479;28;20033;-89
2022/09/22 08:32:49;;;;;;;0.20;0.20;;;;;;;;;;5066878;28;20558;-89
2022/09/22 08:35:15;;;;;;;0.20;0.20;;;;;;;;;;5081554;28;20040;-89
2022/09/22 08:37:42;;;;;;;0.20;0.20;;;;;;;;;;5083337;28;20099;-89
2022/09/22 08:40:16;;;;;;;0.20;0.20;;;;;;;;;;5065203;28;20044;-89
2022/09/22 08:42:44;;;;;;;0.20;0.20;;;;;;;;;;5066259;28;20072;-89
2022/09/22 08:45:20;;;;;;;0.30;0.30;;;;;;;;;;5064931;28;20044;-88
2022/09/22 08:53:24;;;;;;;0.30;0.30;;;;;;;;;;5082382;28;20058;-89
2022/09/22 08:55:55;;;;;;;0.15;0.15;;;;;;;;;;5065540;28;20094;-87
2022/09/22 08:58:35;;;;;;;0.20;0.20;;;;;;;;;;5055853;28;20551;-85
2022/09/22 09:01:07;;;;;;;0.20;0.20;;;;;;;;;;5059353;28;20040;-87
2022/09/22 09:03:43;;;;;;;0.22;0.22;;;;;;;;;;5065035;28;20130;-88
2022/09/22 09:06:15;;;;;;;0.20;0.20;;;;;;;;;;5064972;28;20048;-88
2022/09/22 09:09:03;;;;;;;0.20;0.20;;;;;;;;;;5063664;28;20116;-87
2022/09/22 09:11:48;;;;;;;0.20;0.20;;;;;;;;;;5059465;28;20111;-88
2022/09/22 09:14:17;;;;;;;0.10;0.10;;;;;;;;;;5062995;28;20043;-88
2022/09/22 09:16:45;;;;;;;0.10;0.10;;;;;;;;;;5065625;28;20078;-90
2022/09/22 09:19:19;;;;;;;0.10;0.10;;;;;;;;;;5063888;28;20047;-90
2022/09/22 09:21:49;;;;;;;0.10;0.10;;;;;;;;;;5065699;28;20569;-87
2022/09/22 09:24:19;;;;;;;0.10;0.10;;;;;;;;;;5062753;28;20044;-87
2022/09/22 09:26:47;;;;;;;0.20;0.20;;;;;;;;;;5062012;28;20044;-88
2022/09/22 09:29:19;;;;;;;0.30;0.30;;;;;;;;;;5064754;28;20040;-88
2022/09/22 09:31:51;;;;;;;0.20;0.20;;;;;;;;;;5079121;28;20486;-89
2022/09/22 09:34:19;;;;;;;0.20;0.20;;;;;;;;;;5063114;28;20138;-89
2022/09/22 09:36:49;;;;;;;0.20;0.20;;;;;;;;;;5070534;28;20028;-89
2022/09/22 09:39:19;;;;;;;0.20;0.20;;;;;;;;;;5084348;28;20392;-88
2022/09/22 09:41:46;;;;;;;0.20;0.20;;;;;;;;;;5059672;28;20113;-88
2022/09/22 09:44:17;;;;;;;0.10;0.10;;;;;;;;;;5066487;28;20043;-89
2022/09/22 09:47:02;;;;;;;0.28;0.28;;;;;;;;;;5062546;28;20079;-89
2022/09/22 09:49:28;;;;;;;0.15;0.15;;;;;;;;;;5082977;28;20119;-91
2022/09/22 09:51:56;;;;;;;0.28;0.28;;;;;;;;;;5062721;28;20127;-91
2022/09/22 09:54:22;;;;;;;0.20;0.20;;;;;;;;;;5056070;28;20040;-90
2022/09/22 09:57:07;;;;;;;0.20;0.20;;;;;;;;;;5055967;28;20044;-91
2022/09/22 10:02:21;;;;;;;0.20;0.20;;;;;;;;;;5072345;28;20049;-88
2022/09/22 10:04:52;;;;;;;0.20;0.20;;;;;;;;;;5055719;28;20132;-89
2022/09/22 10:07:26;;;;;;;0.22;0.22;;;;;;;;;;5072774;28;20044;-88
2022/09/22 10:09:53;;;;;;;0.20;0.20;;;;;;;;;;5055808;28;20043;-88
2022/09/22 10:12:22;;;;;;;0.20;0.20;;;;;;;;;;5072443;28;20048;-88
2022/09/22 10:14:50;;;;;;;0.10;0.10;;;;;;;;;;5055958;28;20044;-88
2022/09/22 10:17:43;;;;;;;0.10;0.10;;;;;;;;;;5055787;28;20033;-88
2022/09/22 10:20:25;;;;;;;0.30;0.30;;;;;;;;;;5069354;28;20405;-88
2022/09/22 10:22:51;;;;;;;0.63;0.60;;;;;;;;;;5055692;28;20056;-90
2022/09/22 10:25:26;;;;;;;0.50;0.50;;;;;;;;;;5055659;28;20040;-90
2022/09/22 10:28:03;;;;;;;0.20;0.20;;;;;;;;;;5059898;28;20040;-89
2022/09/22 10:30:31;;;;;;;0.10;0.10;;;;;;;;;;5055511;28;20049;-89
2022/09/22 10:33:04;;;;;;;0.20;0.20;;;;;;;;;;5055383;28;20044;-90
2022/09/22 10:35:32;;;;;;;0.20;0.20;;;;;;;;;;5055475;28;20040;-88
2022/09/22 10:38:01;;;;;;;0.10;0.10;;;;;;;;;;5065308;28;20244;-88
2022/09/22 10:40:28;;;;;;;0.20;0.20;;;;;;;;;;5075555;28;20042;-88
2022/09/22 10:42:56;;;;;;;0.30;0.30;;;;;;;;;;5079152;28;20114;-88
2022/09/22 10:45:32;;;;;;;0.20;0.20;;;;;;;;;;5079517;28;20131;-88
2022/09/22 10:48:14;;;;;;;0.10;0.10;;;;;;;;;;5079467;28;20052;-88
2022/09/22 10:50:40;;;;;;;0.22;0.22;;;;;;;;;;5075313;28;20123;-88
2022/09/22 10:53:20;;;;;;;0.20;0.20;;;;;;;;;;5074714;28;20044;-88
2022/09/22 10:55:53;;;;;;;0.20;0.20;;;;;;;;;;5079042;28;20040;-88
2022/09/22 10:58:20;;;;;;;0.25;0.25;;;;;;;;;;5095755;28;20079;-91
2022/09/22 11:00:46;;;;;;;0.20;0.20;;;;;;;;;;5079472;28;20590;-89
2022/09/22 11:03:15;;;;;;;0.20;0.20;;;;;;;;;;5079148;28;20040;-89
2022/09/22 11:14:30;;;;;;;0.20;0.20;;;;;;;;;;5074895;28;20450;-88
2022/09/22 11:16:59;;;;;;;0.10;0.10;;;;;;;;;;5067792;28;20036;-90
2022/09/22 11:19:44;;;;;;;0.20;0.20;;;;;;;;;;5082217;28;20033;-89
2022/09/22 11:22:16;;;;;;;0.10;0.10;;;;;;;;;;5069199;28;20373;-89
2022/09/22 11:25:04;;;;;;;0.20;0.20;;;;;;;;;;5064949;28;20040;-88
2022/09/22 11:27:35;;;;;;;0.10;0.10;;;;;;;;;;5063336;28;20127;-89
2022/09/22 11:30:10;;;;;;;0.10;0.10;;;;;;;;;;5067030;28;20040;-90
2022/09/22 11:32:42;;;;;;;0.10;0.10;;;;;;;;;;5069799;28;20036;-90
2022/09/22 11:35:32;;;;;;;0.22;0.22;;;;;;;;;;5065245;28;20063;-90
2022/09/22 11:38:16;;;;;;;0.10;0.10;;;;;;;;;;5064824;28;20036;-90
2022/09/22 11:40:55;;;;;;;0.20;0.20;;;;;;;;;;5057777;28;20029;-89
2022/09/22 11:43:36;;;;;;;0.22;0.22;;;;;;;;;;5061532;28;20078;-90
2022/09/22 11:46:02;;;;;;;0.10;0.10;;;;;;;;;;5063394;28;20059;-87
2022/09/22 11:48:37;;;;;;;0.20;0.20;;;;;;;;;;5059110;28;20497;-88
2022/09/22 11:51:03;;;;;;;;;;;;;;;;;;5060982;28;20065;-88
2022/09/22 11:53:50;;;;;;;0.10;0.10;;;;;;;;;;5082138;28;20422;-88
2022/09/22 11:56:21;;;;;;;0.10;0.10;;;;;;;;;;5078280;28;20078;-88
2022/09/22 11:58:48;;;;;;;0.10;0.10;;;;;;;;;;5077825;28;20135;-87
2022/09/22 12:01:22;;;;;;;0.20;0.20;;;;;;;;;;5069438;28;20062;-88
2022/09/22 12:03:58;;;;;;;0.22;0.22;;;;;;;;;;5070880;28;20047;-88
2022/09/22 12:06:31;;;;;;;0.20;0.20;;;;;;;;;;5059038;28;20043;-87
2022/09/22 12:09:03;;;;;;;0.20;0.20;;;;;;;;;;5056831;28;20446;-86
2022/09/22 12:11:34;;;;;;;0.30;0.30;;;;;;;;;;5056802;28;20083;-86
2022/09/22 12:14:00;;;;;;;0.10;0.10;;;;;;;;;;5056996;28;20044;-86
2022/09/22 12:16:40;;;;;;;0.10;0.10;;;;;;;;;;5056126;28;20040;-86
2022/09/22 12:19:13;;;;;;;0.10;0.10;;;;;;;;;;5055711;28;20052;-86
2022/09/22 12:21:39;;;;;;;0.10;0.10;;;;;;;;;;5056663;28;20041;-85
2022/09/22 12:24:12;;;;;;;0.25;0.25;;;;;;;;;;5093367;28;20089;-85
2022/09/22 12:26:39;;;;;;;0.20;0.20;;;;;;;;;;5060550;28;20036;-86
2022/09/22 12:29:22;;;;;;;0.10;0.10;;;;;;;;;;5076215;28;20046;-87
2022/09/22 12:31:50;;;;;;;0.10;0.10;;;;;;;;;;5093627;28;20559;-86
2022/09/22 12:34:26;;;;;;;0.10;0.10;;;;;;;;;;5072917;28;20041;-85
2022/09/22 12:36:54;;;;;;;0.10;0.10;;;;;;;;;;5056131;28;20040;-85
2022/09/22 12:39:22;;;;;;;0.10;0.10;;;;;;;;;;5062220;28;20040;-85
2022/09/22 12:42:02;;;;;;;0.20;0.20;;;;;;;;;;5072635;28;20040;-85
2022/09/22 12:44:30;;;;;;;0.10;0.10;;;;;;;;;;5072773;28;20040;-85
2022/09/22 12:47:01;;;;;;;0.10;0.10;;;;;;;;;;5072860;28;20048;-85
2022/09/22 12:49:27;;;;;;;0.10;0.10;;;;;;;;;;5075794;28;20093;-85
2022/09/22 12:51:53;;;;;;;0.10;0.10;;;;;;;;;;5059155;28;20082;-85
2022/09/22 12:54:22;;;;;;;0.10;0.10;;;;;;;;;;5074448;28;20052;-85
2022/09/22 12:57:07;;;;;;;0.20;0.20;;;;;;;;;;5056126;28;20040;-85
2022/09/22 12:59:36;;;;;;;0.10;0.10;;;;;;;;;;5063254;28;20036;-86
2022/09/22 13:02:08;;;;;;;0.10;0.10;;;;;;;;;;5075766;28;20054;-85
2022/09/22 13:04:34;;;;;;;0.10;0.10;;;;;;;;;;5092019;28;20036;-86
2022/09/22 13:07:00;;;;;;;0.15;0.15;;;;;;;;;;5075839;28;20408;-85
2022/09/22 13:09:29;;;;;;;0.20;0.20;;;;;;;;;;5056517;28;20046;-85
2022/09/22 13:12:04;;;;;;;0.10;0.10;;;;;;;;;;5078504;28;20074;-87
2022/09/22 13:14:49;;;;;;;0.10;0.10;;;;;;;;;;5066845;28;20032;-87
2022/09/22 13:17:34;;;;;;;0.10;0.10;;;;;;;;;;5075565;28;20145;-86
2022/09/22 13:20:01;;;;;;;0.10;0.10;;;;;;;;;;5092061;28;20051;-86
2022/09/22 13:22:27;;;;;;;0.10;0.10;;;;;;;;;;5075629;28;20089;-86
2022/09/22 13:24:53;;;;;;;0.05;0.05;;;;;;;;;;5075729;28;20040;-86
2022/09/22 13:27:19;;;;;;;0.20;0.20;;;;;;;;;;5092336;28;20130;-86
2022/09/22 13:29:57;;;;;;;0.10;0.10;;;;;;;;;;5075328;28;20071;-86
2022/09/22 13:32:26;;;;;;;0.10;0.10;;;;;;;;;;5090075;28;20048;-86
2022/09/22 13:34:53;;;;;;;0.20;0.20;;;;;;;;;;5072182;28;20407;-86
2022/09/22 13:37:21;;;;;;;0.10;0.10;;;;;;;;;;5067582;28;20090;-86
2022/09/22 13:39:49;;;;;;;0.10;0.10;;;;;;;;;;5055345;28;20041;-86
2022/09/22 13:42:18;;;;;;;0.10;0.10;;;;;;;;;;5055706;28;20062;-86
2022/09/22 13:44:46;;;;;;;0.20;0.20;;;;;;;;;;5055255;28;20044;-86
2022/09/22 13:47:15;;;;;;;0.10;0.10;;;;;;;;;;5055550;28;20044;-86
2022/09/22 13:49:46;;;;;;;0.10;0.10;;;;;;;;;;5071940;28;20447;-86
2022/09/22 13:52:14;;;;;;;0.10;0.10;;;;;;;;;;5071827;28;20413;-86
2022/09/22 13:54:40;;;;;;;0.10;0.10;;;;;;;;;;5055264;28;20068;-86
2022/09/22 13:57:15;;;;;;;0.20;0.20;;;;;;;;;;5067714;28;20443;-86
2022/09/22 13:59:41;;;;;;;0.10;0.10;;;;;;;;;;5074698;28;20044;-86
2022/09/22 14:02:11;;;;;;;0.10;0.10;;;;;;;;;;5063173;28;20415;-86
2022/09/22 14:04:48;;;;;;;0.10;0.10;;;;;;;;;;5074989;28;20040;-86
2022/09/22 14:07:14;;;;;;;0.00;0.00;;;;;;;;;;5075232;28;20040;-86
2022/09/22 14:09:40;;;;;;;0.10;0.10;;;;;;;;;;5075016;28;20051;-86
2022/09/22 14:12:08;;;;;;;0.20;0.20;;;;;;;;;;5091669;28;20044;-86
2022/09/22 14:14:34;;;;;;;0.10;0.10;;;;;;;;;;5074813;28;20036;-86
2022/09/22 14:17:04;;;;;;;0.20;0.20;;;;;;;;;;5077411;28;20047;-86
2022/09/22 14:19:56;;;;;;;0.10;0.10;;;;;;;;;;5078734;28;20040;-86
2022/09/22 14:22:23;;;;;;;0.13;0.13;;;;;;;;;;5092143;28;20055;-86
2022/09/22 14:24:51;;;;;;;0.10;0.10;;;;;;;;;;5065937;28;20492;-86
2022/09/22 14:27:29;;;;;;;0.10;0.10;;;;;;;;;;5091374;28;20435;-86
2022/09/22 14:29:56;;;;;;;0.20;0.20;;;;;;;;;;5071407;28;20044;-86
2022/09/22 14:32:31;;;;;;;0.20;0.20;;;;;;;;;;5058623;28;20126;-86
2022/09/22 14:34:58;;;;;;;0.10;0.10;;;;;;;;;;5058550;28;20529;-86
2022/09/22 14:37:33;;;;;;;0.10;0.10;;;;;;;;;;5058316;28;20040;-86
2022/09/22 14:40:00;;;;;;;0.10;0.10;;;;;;;;;;5069753;28;20048;-86
2022/09/22 14:42:28;;;;;;;0.10;0.10;;;;;;;;;;5078417;28;20050;-86
2022/09/22 14:45:09;;;;;;;0.10;0.10;;;;;;;;;;5078430;28;20040;-86
2022/09/22 14:47:39;;;;;;;0.13;0.13;;;;;;;;;;5078072;28;20044;-86
2022/09/22 14:50:09;;;;;;;0.03;0.03;;;;;;;;;;5066802;28;20082;-86
2022/09/22 14:52:37;;;;;;;0.10;0.10;;;;;;;;;;5058025;28;20048;-86
2022/09/22 14:55:15;;;;;;;0.20;0.20;;;;;;;;;;5075131;28;20544;-86
2022/09/22 14:57:47;;;;;;;0.10;0.10;;;;;;;;;;5058015;28;20033;-86
2022/09/22 15:02:59;;;;;;;0.10;0.10;;;;;;;;;;5074651;28;20135;-86
2022/09/22 15:05:31;;;;;;;0.10;0.10;;;;;;;;;;5057978;28;20051;-86
2022/09/22 15:07:58;;;;;;;0.10;0.10;;;;;;;;;;5057956;28;20040;-86
2022/09/22 15:10:28;;;;;;;0.13;0.13;;;;;;;;;;5057916;28;20037;-86
2022/09/22 15:12:55;;;;;;;0.10;0.10;;;;;;;;;;5061810;28;20041;-86
2022/09/22 15:15:25;;;;;;;0.10;0.10;;;;;;;;;;5081324;28;20028;-86
2022/09/22 15:20:41;;;;;;;0.10;0.10;;;;;;;;;;5094366;28;20123;-86